sensor_id;sensor_type;location;lat;lon;timestamp;P1;durP1;ratioP1;P2;durP2;ratioP2
73599;SDS011;61877;48.246;9.220;2023-01-04T00:00:12;11.37;;;5.50;;
73599;SDS011;61877;48.246;9.220;2023-01-04T00:02:38;11.13;;;5.30;;
73599;SDS011;61877;48.246;9.220;2023-01-04T00:05:04;12.43;;;5.43;;
73599;SDS011;61877;48.246;9.220;2023-01-04T00:07:30;11.80;;;5.40;;
73599;SDS011;61877;48.246;9.220;2023-01-04T00:09:57;12.93;;;5.70;;
73599;SDS011;61877;48.246;9.220;2023-01-04T00:12:22;10.93;;;5.18;;
73599;SDS011;61877;48.246;9.220;2023-01-04T00:14:48;12.80;;;5.33;;
73599;SDS011;61877;48.246;9.220;2023-01-04T00:17:13;12.47;;;5.77;;
73599;SDS011;61877;48.246;9.220;2023-01-04T00:19:39;12.37;;;5.67;;
73599;SDS011;61877;48.246;9.220;2023-01-04T00:22:04;11.43;;;5.40;;
73599;SDS011;61877;48.246;9.220;2023-01-04T00:24:30;13.13;;;5.63;;
73599;SDS011;61877;48.246;9.220;2023-01-04T00:26:58;11.52;;;5.22;;
73599;SDS011;61877;48.246;9.220;2023-01-04T00:29:23;12.07;;;5.00;;
73599;SDS011;61877;48.246;9.220;2023-01-04T00:31:48;12.50;;;5.30;;
73599;SDS011;61877;48.246;9.220;2023-01-04T00:34:14;12.60;;;5.33;;
73599;SDS011;61877;48.246;9.220;2023-01-04T00:36:41;12.73;;;5.72;;
73599;SDS011;61877;48.246;9.220;2023-01-04T00:39:08;12.27;;;5.97;;
73599;SDS011;61877;48.246;9.220;2023-01-04T00:41:37;11.80;;;5.50;;
73599;SDS011;61877;48.246;9.220;2023-01-04T00:44:06;12.13;;;5.63;;
73599;SDS011;61877;48.246;9.220;2023-01-04T00:46:35;11.20;;;5.50;;
73599;SDS011;61877;48.246;9.220;2023-01-04T00:49:02;12.35;;;5.55;;
73599;SDS011;61877;48.246;9.220;2023-01-04T00:51:28;11.48;;;4.95;;
73599;SDS011;61877;48.246;9.220;2023-01-04T00:53:55;11.90;;;5.35;;
73599;SDS011;61877;48.246;9.220;2023-01-04T00:56:20;12.13;;;5.67;;
73599;SDS011;61877;48.246;9.220;2023-01-04T00:58:46;12.03;;;5.33;;
73599;SDS011;61877;48.246;9.220;2023-01-04T01:01:12;12.00;;;5.40;;
73599;SDS011;61877;48.246;9.220;2023-01-04T01:03:38;12.33;;;4.90;;
73599;SDS011;61877;48.246;9.220;2023-01-04T01:06:04;11.35;;;4.88;;
73599;SDS011;61877;48.246;9.220;2023-01-04T01:08:31;11.85;;;5.30;;
73599;SDS011;61877;48.246;9.220;2023-01-04T01:11:01;12.57;;;5.00;;
73599;SDS011;61877;48.246;9.220;2023-01-04T01:13:27;12.20;;;4.85;;
73599;SDS011;61877;48.246;9.220;2023-01-04T01:15:52;10.73;;;4.70;;
73599;SDS011;61877;48.246;9.220;2023-01-04T01:18:19;11.10;;;4.95;;
73599;SDS011;61877;48.246;9.220;2023-01-04T01:20:45;11.77;;;4.93;;
73599;SDS011;61877;48.246;9.220;2023-01-04T01:23:11;11.45;;;4.80;;
73599;SDS011;61877;48.246;9.220;2023-01-04T01:25:37;11.38;;;4.93;;
73599;SDS011;61877;48.246;9.220;2023-01-04T01:28:03;10.67;;;4.60;;
73599;SDS011;61877;48.246;9.220;2023-01-04T01:30:29;11.43;;;4.93;;
73599;SDS011;61877;48.246;9.220;2023-01-04T01:32:54;11.93;;;5.03;;
73599;SDS011;61877;48.246;9.220;2023-01-04T01:35:21;12.87;;;5.20;;
73599;SDS011;61877;48.246;9.220;2023-01-04T01:37:46;12.05;;;5.13;;
73599;SDS011;61877;48.246;9.220;2023-01-04T01:40:12;12.03;;;5.37;;
73599;SDS011;61877;48.246;9.220;2023-01-04T01:42:37;12.23;;;5.20;;
73599;SDS011;61877;48.246;9.220;2023-01-04T01:45:03;13.03;;;5.80;;
73599;SDS011;61877;48.246;9.220;2023-01-04T01:47:33;13.32;;;5.63;;
73599;SDS011;61877;48.246;9.220;2023-01-04T01:50:04;12.23;;;5.07;;
73599;SDS011;61877;48.246;9.220;2023-01-04T01:52:35;12.68;;;4.78;;
73599;SDS011;61877;48.246;9.220;2023-01-04T01:55:03;11.25;;;5.28;;
73599;SDS011;61877;48.246;9.220;2023-01-04T01:57:33;10.90;;;4.68;;
73599;SDS011;61877;48.246;9.220;2023-01-04T02:00:04;12.05;;;4.78;;
73599;SDS011;61877;48.246;9.220;2023-01-04T02:02:32;12.37;;;4.60;;
73599;SDS011;61877;48.246;9.220;2023-01-04T02:04:58;11.48;;;4.82;;
73599;SDS011;61877;48.246;9.220;2023-01-04T02:07:26;12.13;;;5.03;;
73599;SDS011;61877;48.246;9.220;2023-01-04T02:09:54;12.02;;;5.18;;
73599;SDS011;61877;48.246;9.220;2023-01-04T02:12:20;10.47;;;4.67;;
73599;SDS011;61877;48.246;9.220;2023-01-04T02:14:46;11.43;;;4.97;;
73599;SDS011;61877;48.246;9.220;2023-01-04T02:17:15;10.57;;;4.55;;
73599;SDS011;61877;48.246;9.220;2023-01-04T02:19:54;10.43;;;4.82;;
73599;SDS011;61877;48.246;9.220;2023-01-04T02:22:34;11.03;;;5.10;;
73599;SDS011;61877;48.246;9.220;2023-01-04T02:25:21;11.85;;;4.78;;
73599;SDS011;61877;48.246;9.220;2023-01-04T02:28:04;10.27;;;4.75;;
73599;SDS011;61877;48.246;9.220;2023-01-04T02:33:42;10.23;;;4.57;;
73599;SDS011;61877;48.246;9.220;2023-01-04T02:36:15;10.83;;;4.60;;
73599;SDS011;61877;48.246;9.220;2023-01-04T02:38:51;9.98;;;4.40;;
73599;SDS011;61877;48.246;9.220;2023-01-04T02:41:28;10.07;;;4.40;;
73599;SDS011;61877;48.246;9.220;2023-01-04T02:43:57;9.27;;;4.15;;
73599;SDS011;61877;48.246;9.220;2023-01-04T02:46:33;11.35;;;4.55;;
73599;SDS011;61877;48.246;9.220;2023-01-04T02:49:03;9.73;;;4.37;;
73599;SDS011;61877;48.246;9.220;2023-01-04T02:51:29;11.10;;;4.63;;
73599;SDS011;61877;48.246;9.220;2023-01-04T02:53:56;9.33;;;4.30;;
73599;SDS011;61877;48.246;9.220;2023-01-04T02:56:27;10.23;;;4.57;;
73599;SDS011;61877;48.246;9.220;2023-01-04T02:59:03;9.65;;;4.50;;
73599;SDS011;61877;48.246;9.220;2023-01-04T03:01:41;9.10;;;4.13;;
73599;SDS011;61877;48.246;9.220;2023-01-04T03:04:20;9.23;;;3.72;;
73599;SDS011;61877;48.246;9.220;2023-01-04T03:06:57;10.03;;;4.30;;
73599;SDS011;61877;48.246;9.220;2023-01-04T03:09:28;9.90;;;4.25;;
73599;SDS011;61877;48.246;9.220;2023-01-04T03:11:59;10.02;;;4.28;;
73599;SDS011;61877;48.246;9.220;2023-01-04T03:14:29;9.52;;;4.20;;
73599;SDS011;61877;48.246;9.220;2023-01-04T03:17:04;9.27;;;4.35;;
73599;SDS011;61877;48.246;9.220;2023-01-04T03:19:36;10.13;;;4.30;;
73599;SDS011;61877;48.246;9.220;2023-01-04T03:22:03;9.27;;;4.03;;
73599;SDS011;61877;48.246;9.220;2023-01-04T03:24:30;9.68;;;4.05;;
73599;SDS011;61877;48.246;9.220;2023-01-04T03:26:57;10.18;;;4.18;;
73599;SDS011;61877;48.246;9.220;2023-01-04T03:29:29;8.85;;;3.78;;
73599;SDS011;61877;48.246;9.220;2023-01-04T03:32:01;10.40;;;4.40;;
73599;SDS011;61877;48.246;9.220;2023-01-04T03:34:31;9.68;;;4.28;;
73599;SDS011;61877;48.246;9.220;2023-01-04T03:36:59;8.87;;;4.23;;
73599;SDS011;61877;48.246;9.220;2023-01-04T03:39:33;9.80;;;4.20;;
73599;SDS011;61877;48.246;9.220;2023-01-04T03:42:11;10.23;;;4.30;;
73599;SDS011;61877;48.246;9.220;2023-01-04T03:44:46;9.75;;;4.20;;
73599;SDS011;61877;48.246;9.220;2023-01-04T03:47:19;9.98;;;4.15;;
73599;SDS011;61877;48.246;9.220;2023-01-04T03:49:55;9.45;;;4.10;;
73599;SDS011;61877;48.246;9.220;2023-01-04T03:52:26;10.80;;;4.33;;
73599;SDS011;61877;48.246;9.220;2023-01-04T03:54:55;10.73;;;4.50;;
73599;SDS011;61877;48.246;9.220;2023-01-04T03:57:21;10.32;;;4.40;;
73599;SDS011;61877;48.246;9.220;2023-01-04T03:59:49;10.63;;;4.40;;
73599;SDS011;61877;48.246;9.220;2023-01-04T04:02:22;10.00;;;4.35;;
73599;SDS011;61877;48.246;9.220;2023-01-04T04:04:52;10.40;;;4.40;;
73599;SDS011;61877;48.246;9.220;2023-01-04T04:07:17;11.07;;;4.80;;
73599;SDS011;61877;48.246;9.220;2023-01-04T04:09:43;11.33;;;4.90;;
73599;SDS011;61877;48.246;9.220;2023-01-04T04:12:08;11.00;;;4.27;;
73599;SDS011;61877;48.246;9.220;2023-01-04T04:14:33;10.67;;;4.70;;
73599;SDS011;61877;48.246;9.220;2023-01-04T04:16:59;9.75;;;4.18;;
73599;SDS011;61877;48.246;9.220;2023-01-04T04:19:26;10.83;;;4.70;;
73599;SDS011;61877;48.246;9.220;2023-01-04T04:21:51;10.77;;;4.45;;
73599;SDS011;61877;48.246;9.220;2023-01-04T04:24:17;10.97;;;4.70;;
73599;SDS011;61877;48.246;9.220;2023-01-04T04:26:44;10.07;;;4.70;;
73599;SDS011;61877;48.246;9.220;2023-01-04T04:29:09;10.60;;;4.50;;
73599;SDS011;61877;48.246;9.220;2023-01-04T04:31:35;11.37;;;4.90;;
73599;SDS011;61877;48.246;9.220;2023-01-04T04:34:00;11.15;;;5.20;;
73599;SDS011;61877;48.246;9.220;2023-01-04T04:36:27;10.30;;;4.50;;
73599;SDS011;61877;48.246;9.220;2023-01-04T04:38:53;10.48;;;4.65;;
73599;SDS011;61877;48.246;9.220;2023-01-04T04:41:18;11.07;;;5.37;;
73599;SDS011;61877;48.246;9.220;2023-01-04T04:43:44;10.83;;;5.30;;
73599;SDS011;61877;48.246;9.220;2023-01-04T04:46:10;12.50;;;5.00;;
73599;SDS011;61877;48.246;9.220;2023-01-04T04:48:35;10.27;;;4.65;;
73599;SDS011;61877;48.246;9.220;2023-01-04T04:51:03;11.10;;;4.72;;
73599;SDS011;61877;48.246;9.220;2023-01-04T04:53:31;10.55;;;4.75;;
73599;SDS011;61877;48.246;9.220;2023-01-04T04:55:56;11.32;;;4.70;;
73599;SDS011;61877;48.246;9.220;2023-01-04T04:58:22;9.90;;;4.70;;
73599;SDS011;61877;48.246;9.220;2023-01-04T05:00:47;11.13;;;4.77;;
73599;SDS011;61877;48.246;9.220;2023-01-04T05:03:13;11.13;;;4.60;;
73599;SDS011;61877;48.246;9.220;2023-01-04T05:05:39;9.97;;;4.20;;
73599;SDS011;61877;48.246;9.220;2023-01-04T05:08:04;10.10;;;4.47;;
73599;SDS011;61877;48.246;9.220;2023-01-04T05:10:31;10.60;;;4.55;;
73599;SDS011;61877;48.246;9.220;2023-01-04T05:12:56;11.23;;;4.25;;
73599;SDS011;61877;48.246;9.220;2023-01-04T05:15:22;11.47;;;4.53;;
73599;SDS011;61877;48.246;9.220;2023-01-04T05:17:47;11.77;;;5.03;;
73599;SDS011;61877;48.246;9.220;2023-01-04T05:20:13;10.43;;;5.13;;
73599;SDS011;61877;48.246;9.220;2023-01-04T05:22:38;9.95;;;4.60;;
73599;SDS011;61877;48.246;9.220;2023-01-04T05:25:04;9.80;;;4.30;;
73599;SDS011;61877;48.246;9.220;2023-01-04T05:27:31;9.98;;;4.60;;
73599;SDS011;61877;48.246;9.220;2023-01-04T05:29:56;10.50;;;4.30;;
73599;SDS011;61877;48.246;9.220;2023-01-04T05:32:22;9.88;;;4.18;;
73599;SDS011;61877;48.246;9.220;2023-01-04T05:34:47;10.47;;;4.50;;
73599;SDS011;61877;48.246;9.220;2023-01-04T05:37:12;9.43;;;4.20;;
73599;SDS011;61877;48.246;9.220;2023-01-04T05:39:38;9.13;;;3.90;;
73599;SDS011;61877;48.246;9.220;2023-01-04T05:42:03;9.57;;;4.15;;
73599;SDS011;61877;48.246;9.220;2023-01-04T05:44:30;10.80;;;4.43;;
73599;SDS011;61877;48.246;9.220;2023-01-04T05:46:55;10.18;;;4.65;;
73599;SDS011;61877;48.246;9.220;2023-01-04T05:49:21;9.33;;;4.23;;
73599;SDS011;61877;48.246;9.220;2023-01-04T05:51:46;10.83;;;4.40;;
73599;SDS011;61877;48.246;9.220;2023-01-04T05:54:12;10.30;;;4.50;;
73599;SDS011;61877;48.246;9.220;2023-01-04T05:56:37;12.60;;;4.90;;
73599;SDS011;61877;48.246;9.220;2023-01-04T05:59:02;12.48;;;4.45;;
73599;SDS011;61877;48.246;9.220;2023-01-04T06:01:29;19.50;;;6.00;;
73599;SDS011;61877;48.246;9.220;2023-01-04T06:03:55;17.52;;;6.65;;
73599;SDS011;61877;48.246;9.220;2023-01-04T06:06:20;20.03;;;8.57;;
73599;SDS011;61877;48.246;9.220;2023-01-04T06:08:46;14.87;;;6.20;;
73599;SDS011;61877;48.246;9.220;2023-01-04T06:11:11;14.00;;;6.13;;
73599;SDS011;61877;48.246;9.220;2023-01-04T06:13:36;16.50;;;6.57;;
73599;SDS011;61877;48.246;9.220;2023-01-04T06:16:02;17.67;;;7.57;;
73599;SDS011;61877;48.246;9.220;2023-01-04T06:18:29;11.53;;;5.40;;
73599;SDS011;61877;48.246;9.220;2023-01-04T06:20:54;12.27;;;5.70;;
73599;SDS011;61877;48.246;9.220;2023-01-04T06:23:20;12.43;;;5.65;;
73599;SDS011;61877;48.246;9.220;2023-01-04T06:25:45;10.90;;;4.87;;
73599;SDS011;61877;48.246;9.220;2023-01-04T06:28:10;10.13;;;4.63;;
73599;SDS011;61877;48.246;9.220;2023-01-04T06:30:36;10.40;;;4.60;;
73599;SDS011;61877;48.246;9.220;2023-01-04T06:33:01;9.70;;;4.13;;
73599;SDS011;61877;48.246;9.220;2023-01-04T06:35:28;9.43;;;4.30;;
73599;SDS011;61877;48.246;9.220;2023-01-04T06:37:53;9.97;;;4.20;;
73599;SDS011;61877;48.246;9.220;2023-01-04T06:40:19;9.70;;;4.10;;
73599;SDS011;61877;48.246;9.220;2023-01-04T06:42:44;8.83;;;4.07;;
73599;SDS011;61877;48.246;9.220;2023-01-04T06:45:10;9.83;;;4.43;;
73599;SDS011;61877;48.246;9.220;2023-01-04T06:47:36;9.18;;;4.20;;
73599;SDS011;61877;48.246;9.220;2023-01-04T06:50:01;10.30;;;4.10;;
73599;SDS011;61877;48.246;9.220;2023-01-04T06:52:28;9.40;;;4.18;;
73599;SDS011;61877;48.246;9.220;2023-01-04T06:54:54;9.23;;;3.63;;
73599;SDS011;61877;48.246;9.220;2023-01-04T06:57:19;9.27;;;4.00;;
73599;SDS011;61877;48.246;9.220;2023-01-04T06:59:44;9.53;;;3.93;;
73599;SDS011;61877;48.246;9.220;2023-01-04T07:02:12;9.07;;;4.23;;
73599;SDS011;61877;48.246;9.220;2023-01-04T07:04:38;9.90;;;4.45;;
73599;SDS011;61877;48.246;9.220;2023-01-04T07:07:03;9.53;;;4.00;;
73599;SDS011;61877;48.246;9.220;2023-01-04T07:09:30;8.93;;;4.03;;
73599;SDS011;61877;48.246;9.220;2023-01-04T07:11:58;10.07;;;3.90;;
73599;SDS011;61877;48.246;9.220;2023-01-04T07:14:23;9.82;;;4.00;;
73599;SDS011;61877;48.246;9.220;2023-01-04T07:16:49;10.43;;;4.07;;
73599;SDS011;61877;48.246;9.220;2023-01-04T07:19:15;8.97;;;4.17;;
73599;SDS011;61877;48.246;9.220;2023-01-04T07:21:40;9.73;;;4.20;;
73599;SDS011;61877;48.246;9.220;2023-01-04T07:24:06;9.70;;;4.03;;
73599;SDS011;61877;48.246;9.220;2023-01-04T07:26:33;9.20;;;4.22;;
73599;SDS011;61877;48.246;9.220;2023-01-04T07:28:59;10.02;;;4.70;;
73599;SDS011;61877;48.246;9.220;2023-01-04T07:31:24;9.60;;;4.80;;
73599;SDS011;61877;48.246;9.220;2023-01-04T07:33:50;9.30;;;4.27;;
73599;SDS011;61877;48.246;9.220;2023-01-04T07:36:15;12.07;;;4.83;;
73599;SDS011;61877;48.246;9.220;2023-01-04T07:38:41;9.97;;;4.67;;
73599;SDS011;61877;48.246;9.220;2023-01-04T07:41:06;10.98;;;4.50;;
73599;SDS011;61877;48.246;9.220;2023-01-04T07:43:33;10.10;;;4.50;;
73599;SDS011;61877;48.246;9.220;2023-01-04T07:45:58;11.57;;;5.68;;
73599;SDS011;61877;48.246;9.220;2023-01-04T07:48:24;15.20;;;7.40;;
73599;SDS011;61877;48.246;9.220;2023-01-04T07:50:49;11.07;;;5.03;;
73599;SDS011;61877;48.246;9.220;2023-01-04T07:53:15;9.30;;;4.10;;
73599;SDS011;61877;48.246;9.220;2023-01-04T07:55:40;10.50;;;4.63;;
73599;SDS011;61877;48.246;9.220;2023-01-04T07:58:06;10.40;;;4.70;;
73599;SDS011;61877;48.246;9.220;2023-01-04T08:00:33;9.45;;;4.45;;
73599;SDS011;61877;48.246;9.220;2023-01-04T08:02:58;10.43;;;4.50;;
73599;SDS011;61877;48.246;9.220;2023-01-04T08:05:24;10.88;;;4.53;;
73599;SDS011;61877;48.246;9.220;2023-01-04T08:07:49;10.57;;;4.57;;
73599;SDS011;61877;48.246;9.220;2023-01-04T08:10:15;9.88;;;4.47;;
73599;SDS011;61877;48.246;9.220;2023-01-04T08:12:40;10.97;;;5.00;;
73599;SDS011;61877;48.246;9.220;2023-01-04T08:15:06;12.40;;;5.03;;
73599;SDS011;61877;48.246;9.220;2023-01-04T08:17:33;9.82;;;4.40;;
73599;SDS011;61877;48.246;9.220;2023-01-04T08:19:59;8.82;;;3.88;;
73599;SDS011;61877;48.246;9.220;2023-01-04T08:22:24;11.83;;;4.50;;
73599;SDS011;61877;48.246;9.220;2023-01-04T08:24:49;12.27;;;4.97;;
73599;SDS011;61877;48.246;9.220;2023-01-04T08:27:18;9.05;;;4.07;;
73599;SDS011;61877;48.246;9.220;2023-01-04T08:29:43;10.70;;;4.95;;
73599;SDS011;61877;48.246;9.220;2023-01-04T08:32:09;10.10;;;4.00;;
73599;SDS011;61877;48.246;9.220;2023-01-04T08:34:36;8.83;;;3.70;;
73599;SDS011;61877;48.246;9.220;2023-01-04T08:37:01;9.88;;;4.05;;
73599;SDS011;61877;48.246;9.220;2023-01-04T08:39:27;9.63;;;3.60;;
73599;SDS011;61877;48.246;9.220;2023-01-04T08:41:52;8.33;;;3.60;;
73599;SDS011;61877;48.246;9.220;2023-01-04T08:44:18;8.23;;;3.97;;
73599;SDS011;61877;48.246;9.220;2023-01-04T08:46:44;8.73;;;3.67;;
73599;SDS011;61877;48.246;9.220;2023-01-04T08:49:11;8.60;;;3.70;;
73599;SDS011;61877;48.246;9.220;2023-01-04T08:51:38;7.57;;;3.60;;
73599;SDS011;61877;48.246;9.220;2023-01-04T08:54:03;9.13;;;3.97;;
73599;SDS011;61877;48.246;9.220;2023-01-04T08:56:29;8.67;;;3.70;;
73599;SDS011;61877;48.246;9.220;2023-01-04T08:58:54;8.13;;;3.53;;
73599;SDS011;61877;48.246;9.220;2023-01-04T09:01:20;6.88;;;2.88;;
73599;SDS011;61877;48.246;9.220;2023-01-04T09:03:45;6.97;;;2.70;;
73599;SDS011;61877;48.246;9.220;2023-01-04T09:06:11;8.57;;;3.20;;
73599;SDS011;61877;48.246;9.220;2023-01-04T09:08:40;7.82;;;3.17;;
73599;SDS011;61877;48.246;9.220;2023-01-04T09:11:08;7.82;;;3.30;;
73599;SDS011;61877;48.246;9.220;2023-01-04T09:13:34;8.35;;;3.10;;
73599;SDS011;61877;48.246;9.220;2023-01-04T09:16:01;7.10;;;2.83;;
73599;SDS011;61877;48.246;9.220;2023-01-04T09:18:27;6.78;;;3.00;;
73599;SDS011;61877;48.246;9.220;2023-01-04T09:20:53;7.88;;;2.92;;
73599;SDS011;61877;48.246;9.220;2023-01-04T09:23:18;7.07;;;2.80;;
73599;SDS011;61877;48.246;9.220;2023-01-04T09:25:45;7.37;;;2.80;;
73599;SDS011;61877;48.246;9.220;2023-01-04T09:28:11;8.87;;;3.33;;
73599;SDS011;61877;48.246;9.220;2023-01-04T09:30:36;7.40;;;3.20;;
73599;SDS011;61877;48.246;9.220;2023-01-04T09:33:04;7.50;;;2.87;;
73599;SDS011;61877;48.246;9.220;2023-01-04T09:35:30;6.75;;;2.88;;
73599;SDS011;61877;48.246;9.220;2023-01-04T09:37:55;6.90;;;3.20;;
73599;SDS011;61877;48.246;9.220;2023-01-04T09:40:21;7.73;;;3.40;;
73599;SDS011;61877;48.246;9.220;2023-01-04T09:42:53;6.55;;;2.72;;
73599;SDS011;61877;48.246;9.220;2023-01-04T09:45:21;7.18;;;3.00;;
73599;SDS011;61877;48.246;9.220;2023-01-04T09:47:52;6.68;;;3.00;;
73599;SDS011;61877;48.246;9.220;2023-01-04T09:50:23;7.00;;;2.77;;
73599;SDS011;61877;48.246;9.220;2023-01-04T09:52:55;6.90;;;3.17;;
73599;SDS011;61877;48.246;9.220;2023-01-04T09:55:28;6.00;;;2.30;;
73599;SDS011;61877;48.246;9.220;2023-01-04T09:57:57;6.70;;;2.70;;
73599;SDS011;61877;48.246;9.220;2023-01-04T10:00:26;6.68;;;2.63;;
73599;SDS011;61877;48.246;9.220;2023-01-04T10:02:55;6.97;;;2.63;;
73599;SDS011;61877;48.246;9.220;2023-01-04T10:05:26;7.88;;;2.83;;
73599;SDS011;61877;48.246;9.220;2023-01-04T10:07:53;6.57;;;2.80;;
73599;SDS011;61877;48.246;9.220;2023-01-04T10:10:20;6.05;;;2.70;;
73599;SDS011;61877;48.246;9.220;2023-01-04T10:13:04;6.05;;;2.58;;
73599;SDS011;61877;48.246;9.220;2023-01-04T10:15:39;6.57;;;2.90;;
73599;SDS011;61877;48.246;9.220;2023-01-04T10:18:12;13.05;;;3.08;;
73599;SDS011;61877;48.246;9.220;2023-01-04T10:20:55;8.25;;;2.90;;
73599;SDS011;61877;48.246;9.220;2023-01-04T10:23:35;7.43;;;2.92;;
73599;SDS011;61877;48.246;9.220;2023-01-04T10:26:11;6.85;;;2.88;;
73599;SDS011;61877;48.246;9.220;2023-01-04T10:28:46;7.20;;;3.17;;
73599;SDS011;61877;48.246;9.220;2023-01-04T10:31:28;7.38;;;2.80;;
73599;SDS011;61877;48.246;9.220;2023-01-04T10:33:59;7.22;;;3.10;;
73599;SDS011;61877;48.246;9.220;2023-01-04T10:36:30;8.18;;;3.08;;
73599;SDS011;61877;48.246;9.220;2023-01-04T10:38:56;7.53;;;3.40;;
73599;SDS011;61877;48.246;9.220;2023-01-04T10:41:24;10.77;;;4.18;;
73599;SDS011;61877;48.246;9.220;2023-01-04T10:43:58;7.47;;;3.13;;
73599;SDS011;61877;48.246;9.220;2023-01-04T10:46:31;7.50;;;3.27;;
73599;SDS011;61877;48.246;9.220;2023-01-04T10:49:08;7.03;;;3.08;;
73599;SDS011;61877;48.246;9.220;2023-01-04T10:51:40;7.90;;;3.60;;
73599;SDS011;61877;48.246;9.220;2023-01-04T10:54:14;6.95;;;2.90;;
73599;SDS011;61877;48.246;9.220;2023-01-04T10:56:49;8.27;;;3.28;;
73599;SDS011;61877;48.246;9.220;2023-01-04T10:59:21;7.30;;;2.70;;
73599;SDS011;61877;48.246;9.220;2023-01-04T11:01:51;7.88;;;3.30;;
73599;SDS011;61877;48.246;9.220;2023-01-04T11:04:24;7.43;;;3.22;;
73599;SDS011;61877;48.246;9.220;2023-01-04T11:06:55;7.90;;;3.20;;
73599;SDS011;61877;48.246;9.220;2023-01-04T11:09:28;7.82;;;3.20;;
73599;SDS011;61877;48.246;9.220;2023-01-04T11:11:59;9.50;;;2.97;;
73599;SDS011;61877;48.246;9.220;2023-01-04T11:14:27;8.38;;;3.03;;
73599;SDS011;61877;48.246;9.220;2023-01-04T11:16:54;7.22;;;3.10;;
73599;SDS011;61877;48.246;9.220;2023-01-04T11:19:23;6.60;;;2.58;;
73599;SDS011;61877;48.246;9.220;2023-01-04T11:21:49;8.17;;;3.10;;
73599;SDS011;61877;48.246;9.220;2023-01-04T11:24:20;7.20;;;2.80;;
73599;SDS011;61877;48.246;9.220;2023-01-04T11:26:46;7.33;;;3.00;;
73599;SDS011;61877;48.246;9.220;2023-01-04T11:29:15;7.30;;;3.00;;
73599;SDS011;61877;48.246;9.220;2023-01-04T11:31:54;7.10;;;3.13;;
73599;SDS011;61877;48.246;9.220;2023-01-04T11:34:36;7.50;;;3.17;;
73599;SDS011;61877;48.246;9.220;2023-01-04T11:37:12;7.60;;;2.95;;
73599;SDS011;61877;48.246;9.220;2023-01-04T11:39:48;7.13;;;3.20;;
73599;SDS011;61877;48.246;9.220;2023-01-04T11:42:17;6.93;;;2.65;;
73599;SDS011;61877;48.246;9.220;2023-01-04T11:44:47;6.97;;;2.67;;
73599;SDS011;61877;48.246;9.220;2023-01-04T11:47:23;6.82;;;2.83;;
73599;SDS011;61877;48.246;9.220;2023-01-04T11:49:49;7.65;;;3.10;;
73599;SDS011;61877;48.246;9.220;2023-01-04T11:52:27;7.45;;;2.60;;
73599;SDS011;61877;48.246;9.220;2023-01-04T11:54:53;6.90;;;2.73;;
73599;SDS011;61877;48.246;9.220;2023-01-04T11:57:39;6.53;;;2.50;;
73599;SDS011;61877;48.246;9.220;2023-01-04T12:00:08;6.53;;;2.80;;
73599;SDS011;61877;48.246;9.220;2023-01-04T12:02:36;6.68;;;2.40;;
73599;SDS011;61877;48.246;9.220;2023-01-04T12:05:01;6.68;;;2.53;;
73599;SDS011;61877;48.246;9.220;2023-01-04T12:07:40;6.35;;;2.33;;
73599;SDS011;61877;48.246;9.220;2023-01-04T12:10:18;6.63;;;2.60;;
73599;SDS011;61877;48.246;9.220;2023-01-04T12:12:46;6.70;;;2.63;;
73599;SDS011;61877;48.246;9.220;2023-01-04T12:15:17;6.03;;;2.43;;
73599;SDS011;61877;48.246;9.220;2023-01-04T12:17:52;7.07;;;2.50;;
73599;SDS011;61877;48.246;9.220;2023-01-04T12:20:23;6.35;;;2.70;;
73599;SDS011;61877;48.246;9.220;2023-01-04T12:22:52;6.30;;;2.70;;
73599;SDS011;61877;48.246;9.220;2023-01-04T12:25:24;6.90;;;2.63;;
73599;SDS011;61877;48.246;9.220;2023-01-04T12:27:54;6.32;;;2.60;;
73599;SDS011;61877;48.246;9.220;2023-01-04T12:30:33;6.40;;;2.70;;
73599;SDS011;61877;48.246;9.220;2023-01-04T12:36:03;6.40;;;2.53;;
73599;SDS011;61877;48.246;9.220;2023-01-04T12:44:57;6.05;;;2.25;;
73599;SDS011;61877;48.246;9.220;2023-01-04T12:47:46;6.88;;;2.75;;
73599;SDS011;61877;48.246;9.220;2023-01-04T12:50:13;6.85;;;2.45;;
73599;SDS011;61877;48.246;9.220;2023-01-04T12:52:42;6.10;;;2.40;;
73599;SDS011;61877;48.246;9.220;2023-01-04T12:55:26;6.40;;;2.47;;
73599;SDS011;61877;48.246;9.220;2023-01-04T12:58:38;7.07;;;2.28;;
73599;SDS011;61877;48.246;9.220;2023-01-04T13:01:17;6.20;;;2.60;;
73599;SDS011;61877;48.246;9.220;2023-01-04T13:03:46;6.28;;;2.60;;
73599;SDS011;61877;48.246;9.220;2023-01-04T13:06:11;6.00;;;2.53;;
73599;SDS011;61877;48.246;9.220;2023-01-04T13:08:38;6.50;;;2.60;;
73599;SDS011;61877;48.246;9.220;2023-01-04T13:11:06;7.53;;;2.63;;
73599;SDS011;61877;48.246;9.220;2023-01-04T13:13:55;6.90;;;2.72;;
73599;SDS011;61877;48.246;9.220;2023-01-04T13:16:26;6.63;;;2.78;;
73599;SDS011;61877;48.246;9.220;2023-01-04T13:18:58;6.78;;;2.80;;
73599;SDS011;61877;48.246;9.220;2023-01-04T13:21:27;6.70;;;2.33;;
73599;SDS011;61877;48.246;9.220;2023-01-04T13:23:55;7.00;;;2.67;;
73599;SDS011;61877;48.246;9.220;2023-01-04T13:26:31;8.10;;;3.03;;
73599;SDS011;61877;48.246;9.220;2023-01-04T13:29:09;7.32;;;2.47;;
73599;SDS011;61877;48.246;9.220;2023-01-04T13:31:43;6.53;;;2.45;;
73599;SDS011;61877;48.246;9.220;2023-01-04T13:34:14;7.03;;;2.60;;
73599;SDS011;61877;48.246;9.220;2023-01-04T13:36:42;6.85;;;2.70;;
73599;SDS011;61877;48.246;9.220;2023-01-04T13:39:09;9.05;;;2.83;;
73599;SDS011;61877;48.246;9.220;2023-01-04T13:41:37;7.33;;;2.67;;
73599;SDS011;61877;48.246;9.220;2023-01-04T13:44:03;6.90;;;2.80;;
73599;SDS011;61877;48.246;9.220;2023-01-04T13:46:35;7.30;;;3.10;;
73599;SDS011;61877;48.246;9.220;2023-01-04T13:49:01;7.38;;;3.00;;
73599;SDS011;61877;48.246;9.220;2023-01-04T13:51:27;6.93;;;2.60;;
73599;SDS011;61877;48.246;9.220;2023-01-04T13:53:54;7.38;;;3.03;;
73599;SDS011;61877;48.246;9.220;2023-01-04T13:56:23;7.80;;;3.13;;
73599;SDS011;61877;48.246;9.220;2023-01-04T13:58:51;7.15;;;2.78;;
73599;SDS011;61877;48.246;9.220;2023-01-04T14:01:18;7.77;;;3.10;;
73599;SDS011;61877;48.246;9.220;2023-01-04T14:03:48;8.57;;;3.63;;
73599;SDS011;61877;48.246;9.220;2023-01-04T14:06:20;8.32;;;3.30;;
73599;SDS011;61877;48.246;9.220;2023-01-04T14:08:50;7.85;;;3.10;;
73599;SDS011;61877;48.246;9.220;2023-01-04T14:11:20;8.20;;;3.50;;
73599;SDS011;61877;48.246;9.220;2023-01-04T14:13:48;8.10;;;3.50;;
73599;SDS011;61877;48.246;9.220;2023-01-04T14:16:15;8.13;;;3.50;;
73599;SDS011;61877;48.246;9.220;2023-01-04T14:18:41;8.43;;;3.20;;
73599;SDS011;61877;48.246;9.220;2023-01-04T14:21:13;8.25;;;3.33;;
73599;SDS011;61877;48.246;9.220;2023-01-04T14:23:40;7.73;;;3.23;;
73599;SDS011;61877;48.246;9.220;2023-01-04T14:26:05;7.60;;;3.30;;
73599;SDS011;61877;48.246;9.220;2023-01-04T14:28:34;7.53;;;3.00;;
73599;SDS011;61877;48.246;9.220;2023-01-04T14:31:12;8.88;;;3.60;;
73599;SDS011;61877;48.246;9.220;2023-01-04T14:33:43;7.38;;;3.25;;
73599;SDS011;61877;48.246;9.220;2023-01-04T14:36:11;8.18;;;3.45;;
73599;SDS011;61877;48.246;9.220;2023-01-04T14:38:39;8.97;;;3.20;;
73599;SDS011;61877;48.246;9.220;2023-01-04T14:41:10;9.80;;;4.30;;
73599;SDS011;61877;48.246;9.220;2023-01-04T14:43:43;7.88;;;3.05;;
73599;SDS011;61877;48.246;9.220;2023-01-04T14:46:10;8.73;;;4.00;;
73599;SDS011;61877;48.246;9.220;2023-01-04T14:48:37;8.47;;;3.90;;
73599;SDS011;61877;48.246;9.220;2023-01-04T14:51:03;8.38;;;3.72;;
73599;SDS011;61877;48.246;9.220;2023-01-04T14:53:30;8.40;;;3.50;;
73599;SDS011;61877;48.246;9.220;2023-01-04T14:55:55;9.63;;;3.93;;
73599;SDS011;61877;48.246;9.220;2023-01-04T14:58:21;10.30;;;4.32;;
73599;SDS011;61877;48.246;9.220;2023-01-04T15:00:46;8.40;;;3.73;;
73599;SDS011;61877;48.246;9.220;2023-01-04T15:03:12;7.83;;;3.50;;